Time;durP1;ratioP1;P1;durP2;ratioP2;P2;SDS_P1;SDS_P2;PMS_P1;PMS_P2;Temp;Humidity;BMP_temperature;BMP_pressure;BME280_temperature;BME280_humidity;BME280_pressure;Samples;Min_cycle;Max_cycle;Signal;HPM_P1;HPM_P2
2023/10/04 00:00:59;;;;;;;9.53;1.67;;;13.20;50.40;;;;;;5069391;28;20480;-72
2023/10/04 00:03:26;;;;;;;13.00;2.05;;;13.20;50.10;;;;;;5069870;28;20444;-72
2023/10/04 00:05:52;;;;;;;10.30;1.70;;;13.20;50.80;;;;;;5069147;28;20418;-72
2023/10/04 00:08:18;;;;;;;10.18;1.77;;;13.20;51.10;;;;;;5068097;28;20769;-72
2023/10/04 00:10:44;;;;;;;10.70;1.58;;;13.20;50.20;;;;;;5069038;28;20460;-72
2023/10/04 00:13:13;;;;;;;10.33;1.73;;;13.10;51.30;;;;;;5069308;28;20412;-72
2023/10/04 00:15:39;;;;;;;10.13;1.80;;;13.10;51.70;;;;;;5080654;28;20419;-72
2023/10/04 00:18:06;;;;;;;12.55;1.90;;;13.10;51.80;;;;;;5067248;28;20998;-72
2023/10/04 00:20:33;;;;;;;11.35;2.05;;;13.10;52.40;;;;;;5068805;28;20430;-72
2023/10/04 00:23:05;;;;;;;10.23;1.80;;;13.10;53.20;;;;;;5067792;28;20422;-72
2023/10/04 00:25:33;;;;;;;10.97;1.93;;;13.10;53.60;;;;;;5068764;28;20477;-72
2023/10/04 00:27:59;;;;;;;10.13;1.83;;;13.00;54.30;;;;;;5068957;28;20468;-72
2023/10/04 00:30:26;;;;;;;11.77;1.85;;;13.00;54.00;;;;;;5068596;28;20917;-72
2023/10/04 00:32:53;;;;;;;10.02;1.65;;;13.00;54.50;;;;;;5067709;28;20408;-72
2023/10/04 00:35:20;;;;;;;11.20;2.10;;;13.00;55.30;;;;;;5067847;28;20427;-72
2023/10/04 00:37:55;;;;;;;8.30;1.63;;;13.00;55.50;;;;;;5068784;28;20434;-72
2023/10/04 00:40:32;;;;;;;11.23;2.13;;;13.00;55.00;;;;;;5063351;28;20464;-71
2023/10/04 00:43:13;;;;;;;9.50;1.52;;;13.00;55.70;;;;;;5049476;28;20411;-71
2023/10/04 00:45:39;;;;;;;12.90;2.00;;;12.90;56.00;;;;;;5068389;28;20442;-72
2023/10/04 00:48:31;;;;;;;9.80;1.95;;;12.90;56.50;;;;;;5068623;28;20431;-71
2023/10/04 00:50:53;;;;;;;10.07;1.83;;;12.90;56.60;;;;;;5067227;28;20498;-72
2023/10/04 00:53:23;;;;;;;10.45;2.10;;;12.80;56.90;;;;;;5068018;28;20566;-71
2023/10/04 00:55:53;;;;;;;11.25;2.03;;;12.80;58.20;;;;;;5067758;28;20412;-71
2023/10/04 00:58:19;;;;;;;10.65;2.33;;;12.80;58.90;;;;;;5068401;28;20403;-72
2023/10/04 01:00:47;;;;;;;10.35;1.92;;;12.80;59.50;;;;;;5066961;28;20423;-71
2023/10/04 01:03:19;;;;;;;13.25;2.15;;;12.70;59.40;;;;;;5068343;28;20408;-71
2023/10/04 01:05:47;;;;;;;9.27;1.60;;;12.70;59.80;;;;;;5058578;28;20796;-71
2023/10/04 01:08:20;;;;;;;9.52;1.70;;;12.70;59.90;;;;;;5068292;28;20862;-72
2023/10/04 01:10:47;;;;;;;11.15;1.90;;;12.60;59.90;;;;;;5049523;28;20465;-71
2023/10/04 01:13:16;;;;;;;11.25;2.30;;;12.60;60.70;;;;;;5067057;28;20464;-72
2023/10/04 01:15:42;;;;;;;20.67;3.10;;;12.60;60.90;;;;;;5063596;28;21022;-72
2023/10/04 01:18:11;;;;;;;16.73;1.90;;;12.60;61.40;;;;;;5067778;28;20560;-72
2023/10/04 01:20:39;;;;;;;11.23;2.00;;;12.50;61.80;;;;;;5067754;28;20487;-72
2023/10/04 01:23:07;;;;;;;13.07;1.80;;;12.50;62.00;;;;;;5066776;28;20423;-72
2023/10/04 01:25:37;;;;;;;9.32;1.90;;;12.50;62.60;;;;;;5067482;28;20778;-72
2023/10/04 01:28:12;;;;;;;12.27;1.98;;;12.50;62.90;;;;;;5067393;28;20486;-72
2023/10/04 01:30:45;;;;;;;13.10;2.40;;;12.50;62.60;;;;;;5066812;28;20477;-72
2023/10/04 01:33:15;;;;;;;14.48;2.10;;;12.40;63.10;;;;;;5067548;28;21247;-72
2023/10/04 01:35:45;;;;;;;10.70;1.98;;;12.40;63.10;;;;;;5067867;28;20470;-72
2023/10/04 01:38:12;;;;;;;12.65;2.15;;;12.40;63.40;;;;;;5067858;28;20399;-72
2023/10/04 01:40:39;;;;;;;12.80;2.53;;;12.40;63.30;;;;;;5067604;28;20431;-72
2023/10/04 01:43:15;;;;;;;8.40;1.52;;;12.40;63.60;;;;;;5062069;28;20414;-72
2023/10/04 01:45:46;;;;;;;10.38;1.92;;;12.40;64.00;;;;;;5067999;28;20487;-72
2023/10/04 01:48:15;;;;;;;10.48;1.80;;;12.40;64.50;;;;;;5067787;28;20412;-72
2023/10/04 01:50:42;;;;;;;10.77;2.08;;;12.40;64.50;;;;;;5066824;28;20404;-72
2023/10/04 01:53:09;;;;;;;9.90;2.17;;;12.40;65.00;;;;;;5067797;28;20403;-73
2023/10/04 01:55:35;;;;;;;13.80;2.13;;;12.40;65.20;;;;;;5067856;28;20406;-72
2023/10/04 01:58:01;;;;;;;12.70;2.20;;;12.40;65.30;;;;;;5058060;28;20916;-72
2023/10/04 02:00:28;;;;;;;10.80;1.67;;;12.40;65.10;;;;;;5069235;28;20428;-72
2023/10/04 02:02:54;;;;;;;13.10;2.20;;;12.40;65.60;;;;;;5070664;28;20403;-72
2023/10/04 02:05:28;;;;;;;12.40;1.80;;;12.40;64.70;;;;;;5070408;28;20402;-72
2023/10/04 02:07:54;;;;;;;10.82;1.90;;;12.40;64.90;;;;;;5071800;28;20460;-72
2023/10/04 02:10:20;;;;;;;10.73;2.20;;;12.40;65.10;;;;;;5071056;28;20396;-72
2023/10/04 02:12:46;;;;;;;10.63;1.77;;;12.40;64.90;;;;;;5066380;28;20460;-72
2023/10/04 02:15:15;;;;;;;7.72;1.70;;;12.40;64.50;;;;;;5065331;28;20424;-73
2023/10/04 02:17:44;;;;;;;12.75;1.88;;;12.40;65.00;;;;;;5071181;28;20431;-72
2023/10/04 02:20:23;;;;;;;11.80;2.42;;;12.30;65.10;;;;;;5071294;28;20450;-72
2023/10/04 02:22:49;;;;;;;9.23;2.27;;;12.30;65.60;;;;;;5071655;28;20478;-72
2023/10/04 02:25:15;;;;;;;10.20;1.55;;;12.30;65.50;;;;;;5071067;28;20408;-73
2023/10/04 02:27:42;;;;;;;9.60;2.10;;;12.40;65.00;;;;;;5070865;28;20877;-72
2023/10/04 02:30:26;;;;;;;14.68;1.95;;;12.40;64.90;;;;;;5071459;28;20407;-72
2023/10/04 02:32:53;;;;;;;13.10;2.10;;;12.40;65.60;;;;;;5060484;28;20400;-72
2023/10/04 02:35:41;;;;;;;12.27;2.15;;;12.30;65.50;;;;;;5069565;28;20408;-72
2023/10/04 02:38:16;;;;;;;9.93;2.10;;;12.40;65.30;;;;;;5062655;28;20778;-72
2023/10/04 02:40:50;;;;;;;10.23;1.67;;;12.30;64.90;;;;;;5082466;28;20441;-72
2023/10/04 02:43:20;;;;;;;12.07;2.00;;;12.30;65.40;;;;;;5065840;28;20837;-72
2023/10/04 02:45:47;;;;;;;9.45;1.73;;;12.30;64.80;;;;;;5058600;28;20504;-72
2023/10/04 02:48:13;;;;;;;12.23;2.07;;;12.40;66.20;;;;;;5071211;28;20414;-72
2023/10/04 02:50:42;;;;;;;9.10;2.00;;;12.40;66.20;;;;;;5070494;28;20404;-73
2023/10/04 02:53:12;;;;;;;11.10;1.92;;;12.40;67.10;;;;;;5070994;28;20404;-73
2023/10/04 02:55:39;;;;;;;11.27;1.80;;;12.30;66.60;;;;;;5069896;28;20415;-73
2023/10/04 02:58:06;;;;;;;12.32;2.53;;;12.40;66.60;;;;;;5069509;28;20758;-73
2023/10/04 03:00:33;;;;;;;11.10;1.83;;;12.40;66.30;;;;;;5070565;28;20842;-72
2023/10/04 03:02:59;;;;;;;9.32;1.70;;;12.40;66.40;;;;;;5070368;28;20473;-73
2023/10/04 03:05:28;;;;;;;11.35;2.25;;;12.40;66.70;;;;;;5056755;28;20808;-72
2023/10/04 03:07:54;;;;;;;14.10;2.03;;;12.40;66.70;;;;;;5069125;28;20820;-71
2023/10/04 03:10:27;;;;;;;10.63;2.13;;;12.30;66.30;;;;;;5070563;28;20411;-72
2023/10/04 03:12:56;;;;;;;8.10;1.98;;;12.40;67.20;;;;;;5070608;28;20802;-71
2023/10/04 03:15:23;;;;;;;9.90;1.70;;;12.40;66.70;;;;;;5070167;28;20435;-72
2023/10/04 03:17:52;;;;;;;13.30;2.10;;;12.40;67.10;;;;;;5070305;28;20465;-72
2023/10/04 03:20:29;;;;;;;13.53;2.10;;;12.40;67.10;;;;;;5070037;28;20420;-72
2023/10/04 03:22:55;;;;;;;13.90;2.28;;;12.50;66.30;;;;;;5070418;28;20897;-72
2023/10/04 03:25:26;;;;;;;13.55;2.28;;;12.50;65.80;;;;;;5069805;28;20400;-72
2023/10/04 03:27:53;;;;;;;10.73;1.80;;;12.50;66.00;;;;;;5070326;28;20396;-72
2023/10/04 03:30:20;;;;;;;9.75;1.80;;;12.40;65.30;;;;;;5068731;28;20427;-72
2023/10/04 03:32:52;;;;;;;10.55;1.58;;;12.40;65.30;;;;;;5070227;28;20418;-72
2023/10/04 03:35:21;;;;;;;14.60;2.23;;;12.40;65.20;;;;;;5058009;28;20435;-72
2023/10/04 03:37:54;;;;;;;10.00;2.10;;;12.40;65.60;;;;;;5069304;28;20402;-72
2023/10/04 03:40:22;;;;;;;8.77;2.00;;;12.40;65.50;;;;;;5070251;28;20423;-72
2023/10/04 03:42:48;;;;;;;13.38;2.20;;;12.40;65.80;;;;;;5069693;28;20422;-72
2023/10/04 03:45:17;;;;;;;15.45;3.00;;;12.40;66.40;;;;;;5069874;28;20403;-72
2023/10/04 03:47:44;;;;;;;8.75;2.00;;;12.50;66.90;;;;;;5069560;28;20399;-72
2023/10/04 03:50:12;;;;;;;11.02;2.05;;;12.50;66.40;;;;;;5070278;28;20439;-72
2023/10/04 03:52:39;;;;;;;9.05;2.00;;;12.60;68.00;;;;;;5069442;28;20431;-72
2023/10/04 03:55:10;;;;;;;12.27;2.17;;;12.70;69.00;;;;;;5069921;28;20494;-72
2023/10/04 03:57:38;;;;;;;9.50;1.80;;;12.70;69.10;;;;;;5069382;28;20419;-72
2023/10/04 04:00:07;;;;;;;11.88;2.03;;;12.70;68.40;;;;;;5068006;28;20901;-72
2023/10/04 04:02:33;;;;;;;14.00;2.33;;;12.70;67.40;;;;;;5051050;28;20423;-72
2023/10/04 04:04:58;;;;;;;12.10;2.20;;;12.60;67.60;;;;;;5069883;28;20407;-72
2023/10/04 04:07:26;;;;;;;11.90;2.38;;;12.50;67.70;;;;;;5068244;28;20928;-72
2023/10/04 04:09:52;;;;;;;10.65;2.13;;;12.60;67.70;;;;;;5069707;28;21015;-72
2023/10/04 04:12:18;;;;;;;12.50;2.25;;;12.50;68.10;;;;;;5069434;28;20537;-72
2023/10/04 04:14:43;;;;;;;10.00;2.97;;;12.50;68.50;;;;;;5067971;28;20774;-72
2023/10/04 04:17:09;;;;;;;11.73;1.92;;;12.50;68.90;;;;;;5069235;28;20423;-72
2023/10/04 04:19:35;;;;;;;13.27;2.43;;;12.50;69.40;;;;;;5069170;28;20488;-72
2023/10/04 04:22:01;;;;;;;11.90;1.90;;;12.50;69.60;;;;;;5067279;28;20447;-72
2023/10/04 04:24:27;;;;;;;13.13;2.20;;;12.50;69.60;;;;;;5068425;28;20411;-72
2023/10/04 04:26:58;;;;;;;11.00;2.20;;;12.40;69.50;;;;;;5067941;28;20761;-72
2023/10/04 04:29:23;;;;;;;10.45;2.00;;;12.40;69.70;;;;;;5068622;28;20399;-72
2023/10/04 04:31:52;;;;;;;11.85;2.40;;;12.40;69.90;;;;;;5068119;28;20403;-72
2023/10/04 04:34:18;;;;;;;9.35;2.03;;;12.40;70.10;;;;;;5067400;28;20418;-72
2023/10/04 04:36:46;;;;;;;12.60;2.40;;;12.40;70.30;;;;;;5056096;28;20486;-72
2023/10/04 04:39:16;;;;;;;13.05;2.25;;;12.40;70.40;;;;;;5068411;28;20403;-72
2023/10/04 04:41:42;;;;;;;12.57;2.72;;;12.50;70.50;;;;;;5069133;28;20594;-72
2023/10/04 04:44:08;;;;;;;13.50;1.98;;;12.40;69.80;;;;;;5068750;28;20491;-72
2023/10/04 04:46:34;;;;;;;13.38;2.20;;;12.50;70.00;;;;;;5067996;28;20421;-72
2023/10/04 04:49:00;;;;;;;13.68;2.53;;;12.50;69.70;;;;;;5050660;28;20420;-72
2023/10/04 04:51:26;;;;;;;10.50;2.00;;;12.50;69.40;;;;;;5067488;28;20478;-72
2023/10/04 04:53:52;;;;;;;14.87;2.70;;;12.50;69.50;;;;;;5068243;28;20498;-72
2023/10/04 04:56:21;;;;;;;10.60;2.17;;;12.50;69.20;;;;;;5068654;28;20461;-72
2023/10/04 04:58:47;;;;;;;9.38;2.22;;;12.60;69.00;;;;;;5068310;28;20924;-72
2023/10/04 05:01:14;;;;;;;9.13;2.43;;;12.50;68.90;;;;;;5068549;28;20423;-72
2023/10/04 05:03:45;;;;;;;9.38;1.85;;;12.50;68.20;;;;;;5068316;28;20562;-72
2023/10/04 05:06:21;;;;;;;10.98;2.35;;;12.60;68.30;;;;;;5068192;28;20399;-72
2023/10/04 05:08:46;;;;;;;14.27;2.30;;;12.50;67.70;;;;;;5068403;28;20404;-72
2023/10/04 05:11:12;;;;;;;9.10;1.95;;;12.50;67.90;;;;;;5068099;28;20427;-72
2023/10/04 05:13:39;;;;;;;13.83;2.53;;;12.50;67.70;;;;;;5066519;28;20407;-72
2023/10/04 05:16:05;;;;;;;12.57;2.25;;;12.40;67.50;;;;;;5068357;28;20410;-71
2023/10/04 05:18:31;;;;;;;10.98;2.03;;;12.50;67.90;;;;;;5066662;28;20412;-72
2023/10/04 05:21:00;;;;;;;11.75;2.28;;;12.40;68.10;;;;;;5067574;28;20432;-72
2023/10/04 05:23:27;;;;;;;13.17;2.23;;;12.40;68.30;;;;;;5067350;28;20415;-72
2023/10/04 05:25:53;;;;;;;10.90;2.08;;;12.40;68.30;;;;;;5068258;28;20403;-69
2023/10/04 05:28:20;;;;;;;11.93;2.33;;;12.40;68.20;;;;;;5067584;28;20443;-72
2023/10/04 05:30:46;;;;;;;10.20;1.90;;;12.30;68.20;;;;;;5066987;28;20940;-71
2023/10/04 05:33:18;;;;;;;12.77;2.20;;;12.30;68.50;;;;;;5064018;28;20973;-76
2023/10/04 05:35:45;;;;;;;10.35;2.10;;;12.30;68.60;;;;;;5064933;28;20439;-72
2023/10/04 05:38:12;;;;;;;9.90;2.10;;;12.30;68.70;;;;;;5066669;28;20531;-72
2023/10/04 05:40:39;;;;;;;12.25;2.58;;;12.30;68.90;;;;;;5082251;28;20995;-72
2023/10/04 05:43:08;;;;;;;10.93;2.43;;;12.30;69.30;;;;;;5067866;28;20404;-73
2023/10/04 05:45:34;;;;;;;10.90;1.92;;;12.30;69.30;;;;;;5066719;28;20410;-72
2023/10/04 05:48:00;;;;;;;11.50;2.50;;;12.30;69.90;;;;;;5066266;28;20484;-73
2023/10/04 05:50:27;;;;;;;12.63;2.53;;;12.30;69.80;;;;;;5067577;28;20482;-72
2023/10/04 05:52:53;;;;;;;14.05;2.33;;;12.30;70.00;;;;;;5067628;28;20399;-72
2023/10/04 05:55:20;;;;;;;13.88;2.40;;;12.30;69.90;;;;;;5067704;28;20762;-72
2023/10/04 05:57:48;;;;;;;14.65;2.67;;;12.30;69.90;;;;;;5067480;28;20408;-72
2023/10/04 06:00:28;;;;;;;10.13;2.20;;;12.30;70.00;;;;;;5067376;28;20423;-73
2023/10/04 06:03:01;;;;;;;11.13;2.25;;;12.30;70.30;;;;;;5056708;28;20920;-73
2023/10/04 06:05:28;;;;;;;14.63;2.72;;;12.30;70.40;;;;;;5066114;28;20406;-72
2023/10/04 06:07:57;;;;;;;11.73;2.15;;;12.30;70.70;;;;;;5068181;28;20486;-71
2023/10/04 06:10:27;;;;;;;9.77;2.00;;;12.30;70.90;;;;;;5065571;28;20415;-72
2023/10/04 06:12:54;;;;;;;11.77;2.47;;;12.30;70.90;;;;;;5066656;28;20491;-71
2023/10/04 06:15:20;;;;;;;9.65;2.17;;;12.30;70.90;;;;;;5066137;28;20885;-71
2023/10/04 06:17:47;;;;;;;12.03;2.30;;;12.30;71.00;;;;;;5067491;28;20404;-72
2023/10/04 06:20:33;;;;;;;10.40;2.28;;;12.30;71.30;;;;;;5066586;28;20475;-71
2023/10/04 06:23:05;;;;;;;10.43;2.28;;;12.30;71.50;;;;;;5067301;28;20411;-71
2023/10/04 06:25:31;;;;;;;9.80;2.10;;;12.30;72.10;;;;;;5067451;28;20494;-71
2023/10/04 06:27:58;;;;;;;10.20;1.98;;;12.30;72.30;;;;;;5066972;28;20739;-71
2023/10/04 06:30:31;;;;;;;9.88;2.60;;;12.30;72.40;;;;;;5067300;28;20412;-71
2023/10/04 06:33:02;;;;;;;10.60;2.60;;;12.40;72.70;;;;;;5067245;28;20937;-71
2023/10/04 06:35:29;;;;;;;12.40;2.60;;;12.30;72.70;;;;;;5066898;28;20861;-71
2023/10/04 06:37:56;;;;;;;10.60;2.00;;;12.40;73.10;;;;;;5066758;28;20778;-71
2023/10/04 06:40:24;;;;;;;10.45;2.70;;;12.50;73.80;;;;;;5066003;28;20436;-71
2023/10/04 06:42:51;;;;;;;10.10;2.13;;;12.50;73.90;;;;;;5067218;28;20403;-71
2023/10/04 06:45:22;;;;;;;10.53;2.40;;;12.50;73.70;;;;;;5066928;28;20434;-72
2023/10/04 06:47:49;;;;;;;13.80;2.42;;;12.60;73.80;;;;;;5069682;28;20416;-71
2023/10/04 06:50:20;;;;;;;12.05;2.38;;;12.60;74.00;;;;;;5071185;28;20403;-71
2023/10/04 06:52:50;;;;;;;9.25;2.35;;;12.60;74.00;;;;;;5070909;28;20411;-71
2023/10/04 06:55:20;;;;;;;12.05;2.95;;;12.60;73.50;;;;;;5053206;28;20408;-71
2023/10/04 06:57:47;;;;;;;14.98;2.55;;;12.70;73.80;;;;;;5070498;28;20428;-71
2023/10/04 07:00:17;;;;;;;9.93;3.05;;;12.70;73.90;;;;;;5069274;28;20412;-71
2023/10/04 07:02:55;;;;;;;14.73;3.55;;;12.70;73.90;;;;;;5067729;28;20917;-71
2023/10/04 07:05:23;;;;;;;12.67;3.03;;;12.80;74.10;;;;;;5070407;28;20484;-71
2023/10/04 07:07:53;;;;;;;11.95;2.70;;;12.80;73.90;;;;;;5070330;28;20412;-72
2023/10/04 07:10:23;;;;;;;9.68;2.30;;;12.90;74.00;;;;;;5070220;28;20423;-72
2023/10/04 07:12:51;;;;;;;10.95;2.78;;;12.90;73.80;;;;;;5070604;28;20750;-71
2023/10/04 07:15:18;;;;;;;9.93;2.50;;;12.90;73.70;;;;;;5065790;28;21035;-71
2023/10/04 07:17:44;;;;;;;12.63;3.15;;;13.00;73.50;;;;;;5069850;28;20412;-71
2023/10/04 07:20:15;;;;;;;12.63;2.75;;;13.00;73.60;;;;;;5069657;28;20457;-71
2023/10/04 07:23:03;;;;;;;12.73;2.50;;;13.10;73.70;;;;;;5070425;28;20430;-71
2023/10/04 07:25:39;;;;;;;9.70;2.50;;;13.10;72.30;;;;;;5062555;28;20492;-71
2023/10/04 07:28:08;;;;;;;11.38;2.60;;;13.20;73.20;;;;;;5065904;28;20410;-72
2023/10/04 07:30:35;;;;;;;13.20;3.20;;;13.20;72.80;;;;;;5059970;28;20927;-72
2023/10/04 07:33:01;;;;;;;13.90;3.03;;;13.30;72.90;;;;;;5065501;28;21554;-72
2023/10/04 07:35:28;;;;;;;11.80;3.10;;;13.40;72.70;;;;;;5058570;28;21076;-71
2023/10/04 07:37:56;;;;;;;11.45;3.00;;;13.40;72.10;;;;;;5069406;28;20396;-71
2023/10/04 07:40:23;;;;;;;11.68;2.67;;;13.50;71.80;;;;;;5069509;28;20769;-71
2023/10/04 07:42:52;;;;;;;13.55;3.40;;;13.60;72.00;;;;;;5070170;28;20404;-71
2023/10/04 07:45:19;;;;;;;11.98;2.88;;;13.60;71.60;;;;;;5069083;28;20913;-72
2023/10/04 07:47:45;;;;;;;12.40;2.93;;;13.70;71.40;;;;;;5069591;28;20400;-72
2023/10/04 07:50:15;;;;;;;13.38;3.03;;;13.70;70.40;;;;;;5070256;28;20428;-72
2023/10/04 07:52:44;;;;;;;7.43;2.67;;;13.80;70.40;;;;;;5069224;28;20430;-71
2023/10/04 07:55:22;;;;;;;10.88;3.08;;;13.80;70.30;;;;;;5068614;28;20411;-72
2023/10/04 07:57:50;;;;;;;10.75;2.78;;;13.90;70.00;;;;;;5068461;28;20422;-71
2023/10/04 08:00:16;;;;;;;14.40;3.43;;;14.00;70.00;;;;;;5070219;28;20400;-72
2023/10/04 08:02:49;;;;;;;13.88;2.92;;;14.10;69.60;;;;;;5069264;28;20399;-72
2023/10/04 08:05:19;;;;;;;11.73;2.85;;;14.20;68.80;;;;;;5069373;28;20415;-71
2023/10/04 08:07:51;;;;;;;12.67;3.00;;;14.20;68.30;;;;;;5069026;28;20430;-72
2023/10/04 08:10:17;;;;;;;10.65;2.85;;;14.30;67.50;;;;;;5067800;28;20507;-72
2023/10/04 08:12:44;;;;;;;14.05;3.20;;;14.40;66.00;;;;;;5069250;28;20400;-71
2023/10/04 08:15:13;;;;;;;13.52;3.03;;;14.50;65.90;;;;;;5069290;28;20404;-72
2023/10/04 08:17:40;;;;;;;12.03;2.90;;;14.50;65.10;;;;;;5067619;28;20411;-72
2023/10/04 08:20:06;;;;;;;12.32;2.92;;;14.60;64.80;;;;;;5068999;28;20408;-71
2023/10/04 08:22:32;;;;;;;14.82;3.20;;;14.70;63.50;;;;;;5069323;28;20425;-72
2023/10/04 08:24:58;;;;;;;12.30;3.33;;;14.80;61.90;;;;;;5050728;28;20853;-72
2023/10/04 08:27:24;;;;;;;11.02;3.30;;;14.90;61.10;;;;;;5060335;28;20401;-71
2023/10/04 08:29:50;;;;;;;13.57;3.38;;;15.00;60.40;;;;;;5065488;28;20798;-71
2023/10/04 08:32:17;;;;;;;14.03;2.97;;;15.10;58.80;;;;;;5069249;28;20429;-72
2023/10/04 08:34:43;;;;;;;11.27;3.25;;;15.10;57.20;;;;;;5066644;28;20495;-72
2023/10/04 08:37:09;;;;;;;10.07;3.00;;;15.20;55.60;;;;;;5069052;28;20489;-72
2023/10/04 08:39:36;;;;;;;10.68;3.13;;;15.30;52.50;;;;;;5067222;28;20977;-72
2023/10/04 08:42:03;;;;;;;10.18;3.05;;;15.40;48.50;;;;;;5068537;28;20485;-72
2023/10/04 08:44:30;;;;;;;14.02;3.05;;;15.50;46.20;;;;;;5068443;28;21006;-72
2023/10/04 08:46:59;;;;;;;14.15;3.75;;;15.50;44.10;;;;;;5069100;28;20431;-71
2023/10/04 08:49:32;;;;;;;12.48;3.20;;;15.60;41.30;;;;;;5068148;28;20407;-72
2023/10/04 08:52:13;;;;;;;11.02;3.13;;;15.60;40.60;;;;;;5068841;28;20392;-72
2023/10/04 08:54:42;;;;;;;11.05;2.97;;;15.70;39.70;;;;;;5068464;28;20876;-72
2023/10/04 08:57:14;;;;;;;11.70;2.55;;;15.70;36.90;;;;;;5068583;28;21194;-72
2023/10/04 08:59:44;;;;;;;11.82;3.00;;;15.80;35.90;;;;;;5067197;28;20473;-72
2023/10/04 09:02:14;;;;;;;10.20;3.00;;;16.00;37.90;;;;;;5068280;28;20426;-72
2023/10/04 09:04:40;;;;;;;14.65;3.88;;;16.30;41.20;;;;;;5058848;28;20811;-72
2023/10/04 09:07:08;;;;;;;12.93;3.30;;;16.90;40.20;;;;;;5068390;28;20399;-72
2023/10/04 09:09:39;;;;;;;14.65;4.13;;;17.50;27.60;;;;;;5068083;28;20460;-72
2023/10/04 09:12:07;;;;;;;10.68;3.42;;;18.10;18.20;;;;;;5068371;28;20438;-73
2023/10/04 09:14:33;;;;;;;10.50;3.58;;;18.80;5.60;;;;;;5068453;28;20423;-72
2023/10/04 09:17:19;;;;;;;12.40;3.30;;;19.30;1.00;;;;;;5066380;28;20956;-72
2023/10/04 09:19:47;;;;;;;10.65;3.45;;;19.70;1.00;;;;;;5050371;28;20454;-72
2023/10/04 09:22:17;;;;;;;12.80;3.75;;;19.70;1.00;;;;;;5067910;28;20522;-72
2023/10/04 09:24:56;;;;;;;12.55;3.50;;;19.30;1.00;;;;;;5068096;28;20410;-72
2023/10/04 09:27:23;;;;;;;9.95;3.35;;;18.70;1.00;;;;;;5057876;28;20491;-72
2023/10/04 09:29:49;;;;;;;11.45;3.50;;;18.70;1.00;;;;;;5067331;28;20836;-72
2023/10/04 09:32:38;;;;;;;12.27;3.58;;;18.90;1.00;;;;;;5067927;28;20900;-72
2023/10/04 09:35:05;;;;;;;10.03;3.10;;;19.20;1.00;;;;;;5067629;28;20414;-72
2023/10/04 09:37:31;;;;;;;13.02;3.40;;;19.30;1.00;;;;;;5067217;28;20415;-72
2023/10/04 09:40:08;;;;;;;12.38;3.40;;;19.40;1.00;;;;;;5067984;28;20780;-72
2023/10/04 09:42:55;;;;;;;10.90;3.20;;;19.10;1.00;;;;;;5066570;28;20434;-72
2023/10/04 09:45:24;;;;;;;9.32;3.40;;;19.20;1.00;;;;;;5067913;28;20420;-71
2023/10/04 09:47:51;;;;;;;12.73;3.70;;;19.70;1.00;;;;;;5065850;28;20487;-72
2023/10/04 09:50:23;;;;;;;9.07;3.53;;;19.60;1.00;;;;;;5068004;28;20391;-72
2023/10/04 09:52:49;;;;;;;10.68;3.65;;;19.20;1.00;;;;;;5049547;28;20446;-72
2023/10/04 09:55:15;;;;;;;12.30;3.35;;;19.00;1.00;;;;;;5067596;28;20399;-72
2023/10/04 09:57:43;;;;;;;12.80;3.30;;;19.20;1.00;;;;;;5066944;28;20403;-72
2023/10/04 10:00:17;;;;;;;11.63;3.53;;;19.60;1.00;;;;;;5066082;28;20449;-72
2023/10/04 10:02:52;;;;;;;11.52;3.38;;;20.20;1.00;;;;;;5066154;28;20921;-72
2023/10/04 10:05:28;;;;;;;10.52;3.42;;;20.90;99.90;;;;;;5067624;28;20394;-72
2023/10/04 10:08:04;;;;;;;12.27;3.78;;;21.40;99.90;;;;;;5066772;28;20808;-72
2023/10/04 10:10:34;;;;;;;11.85;3.58;;;21.70;99.90;;;;;;5065871;28;20446;-72
2023/10/04 10:13:00;;;;;;;9.60;3.40;;;21.50;99.90;;;;;;5068145;28;20407;-72
2023/10/04 10:15:27;;;;;;;8.07;2.97;;;21.10;99.90;;;;;;5067342;28;20480;-72
2023/10/04 10:17:53;;;;;;;9.32;3.00;;;20.80;99.90;;;;;;5067326;28;20974;-72
2023/10/04 10:20:19;;;;;;;10.65;3.00;;;20.60;99.90;;;;;;5065263;28;20461;-72
2023/10/04 10:22:59;;;;;;;10.82;3.10;;;20.50;99.90;;;;;;5071661;28;21134;-72
2023/10/04 10:25:26;;;;;;;9.52;3.00;;;20.40;99.90;;;;;;5070826;28;20486;-72
2023/10/04 10:28:01;;;;;;;10.77;3.33;;;20.40;99.90;;;;;;5071286;28;20483;-72
2023/10/04 10:30:31;;;;;;;9.77;3.67;;;20.80;99.90;;;;;;5071550;28;20395;-72
2023/10/04 10:32:58;;;;;;;12.38;3.50;;;21.10;99.90;;;;;;5071583;28;20503;-73
2023/10/04 10:35:52;;;;;;;10.07;3.35;;;21.10;99.90;;;;;;5070950;28;20488;-72
2023/10/04 10:38:39;;;;;;;10.35;3.42;;;20.70;99.90;;;;;;5059374;28;21285;-72
2023/10/04 10:41:05;;;;;;;11.48;3.10;;;20.40;99.90;;;;;;5052514;28;20436;-72
2023/10/04 10:43:31;;;;;;;11.82;3.53;;;20.10;99.90;;;;;;5071244;28;20435;-72
2023/10/04 10:45:59;;;;;;;10.95;3.45;;;20.10;99.90;;;;;;5069591;28;20407;-72
2023/10/04 10:48:33;;;;;;;10.07;3.35;;;20.20;99.90;;;;;;5071030;28;20399;-72
2023/10/04 10:51:00;;;;;;;11.13;3.83;;;20.20;99.90;;;;;;5070677;28;20482;-73
2023/10/04 10:53:26;;;;;;;11.35;3.80;;;20.20;99.90;;;;;;5070250;28;20461;-73
2023/10/04 10:55:52;;;;;;;11.38;3.80;;;20.10;99.90;;;;;;5070803;28;20399;-72
2023/10/04 10:58:18;;;;;;;11.02;3.60;;;19.80;99.90;;;;;;5068604;28;20464;-72
2023/10/04 11:00:44;;;;;;;11.60;3.80;;;19.60;99.90;;;;;;5068667;28;20454;-72
2023/10/04 11:03:09;;;;;;;9.90;3.60;;;19.70;99.90;;;;;;5069881;28;20408;-73
2023/10/04 11:05:35;;;;;;;10.57;3.80;;;19.90;99.90;;;;;;5070044;28;20419;-72
2023/10/04 11:08:06;;;;;;;11.98;3.90;;;19.90;99.90;;;;;;5070338;28;20414;-72
2023/10/04 11:10:34;;;;;;;11.57;3.55;;;19.80;99.90;;;;;;5066751;28;20407;-72
2023/10/04 11:13:08;;;;;;;11.20;3.83;;;19.60;99.90;;;;;;5069213;28;20567;-72
2023/10/04 11:15:33;;;;;;;10.05;3.45;;;19.50;99.90;;;;;;5069728;28;20415;-72
2023/10/04 11:18:00;;;;;;;9.38;3.42;;;19.30;99.90;;;;;;5051588;28;20412;-73
2023/10/04 11:20:28;;;;;;;11.18;3.58;;;19.10;99.90;;;;;;5051956;28;20404;-73
2023/10/04 11:22:55;;;;;;;11.87;3.77;;;18.90;99.90;;;;;;5069919;28;20408;-73
2023/10/04 11:25:21;;;;;;;15.50;3.72;;;18.70;99.90;;;;;;5069664;28;20404;-72
2023/10/04 11:27:50;;;;;;;11.95;3.88;;;18.60;99.90;;;;;;5068801;28;20476;-72
2023/10/04 11:30:22;;;;;;;11.18;3.55;;;18.50;99.90;;;;;;5069314;28;20436;-72
2023/10/04 11:32:48;;;;;;;11.90;3.53;;;18.40;99.90;;;;;;5067085;28;20434;-71
2023/10/04 11:35:21;;;;;;;10.02;3.70;;;18.30;99.90;;;;;;5057425;28;20411;-72
2023/10/04 11:37:50;;;;;;;10.60;3.72;;;18.30;99.90;;;;;;5068315;28;20443;-72
2023/10/04 11:40:19;;;;;;;12.25;4.47;;;18.20;99.90;;;;;;5069382;28;20924;-72
2023/10/04 11:42:46;;;;;;;11.13;4.00;;;18.20;99.90;;;;;;5067849;28;20440;-72
2023/10/04 11:45:24;;;;;;;10.73;3.92;;;18.10;99.90;;;;;;5070001;28;20408;-72
2023/10/04 11:47:59;;;;;;;8.97;3.67;;;18.00;99.90;;;;;;5069282;28;20476;-73
2023/10/04 11:50:26;;;;;;;11.82;4.32;;;18.10;99.90;;;;;;5058509;28;20413;-72
2023/10/04 11:52:56;;;;;;;12.65;4.07;;;18.00;99.90;;;;;;5069191;28;20440;-72
2023/10/04 11:55:27;;;;;;;9.25;3.55;;;18.00;99.90;;;;;;5069881;28;20433;-72
2023/10/04 11:58:04;;;;;;;12.77;4.27;;;18.00;99.90;;;;;;5068859;28;20909;-72
2023/10/04 12:00:30;;;;;;;12.80;4.55;;;18.00;99.90;;;;;;5056430;28;20547;-73
2023/10/04 12:02:55;;;;;;;12.00;4.03;;;18.00;99.90;;;;;;5069629;28;20400;-72
2023/10/04 12:05:21;;;;;;;9.63;4.05;;;18.00;99.90;;;;;;5069022;28;20407;-73
2023/10/04 12:07:47;;;;;;;11.33;3.70;;;18.00;99.90;;;;;;5051187;28;20407;-73
2023/10/04 12:10:15;;;;;;;11.70;4.40;;;18.00;99.90;;;;;;5068839;28;20443;-71
2023/10/04 12:12:42;;;;;;;13.50;4.35;;;18.00;99.90;;;;;;5069086;28;20395;-71
2023/10/04 12:15:08;;;;;;;9.57;4.00;;;18.10;99.90;;;;;;5069381;28;20412;-72
2023/10/04 12:17:34;;;;;;;11.85;4.50;;;18.20;99.90;;;;;;5069027;28;20770;-71
2023/10/04 12:20:04;;;;;;;11.23;3.72;;;18.30;99.90;;;;;;5068609;28;20946;-71
2023/10/04 12:22:30;;;;;;;12.55;4.45;;;18.40;99.90;;;;;;5068882;28;20466;-71
2023/10/04 12:24:56;;;;;;;11.23;4.07;;;18.50;99.90;;;;;;5068360;28;20411;-71
2023/10/04 12:27:23;;;;;;;9.43;3.95;;;18.50;99.90;;;;;;5067969;28;20391;-72
2023/10/04 12:29:50;;;;;;;8.98;3.65;;;18.60;99.90;;;;;;5068403;28;20404;-73
2023/10/04 12:32:18;;;;;;;12.15;4.10;;;18.60;99.90;;;;;;5068747;28;20399;-72
2023/10/04 12:34:44;;;;;;;10.90;3.90;;;18.70;99.90;;;;;;5066930;28;20408;-72
2023/10/04 12:37:10;;;;;;;12.27;3.70;;;18.80;99.90;;;;;;5068804;28;20854;-72
2023/10/04 12:39:38;;;;;;;9.27;3.50;;;18.90;99.90;;;;;;5068354;28;20878;-71
2023/10/04 12:42:04;;;;;;;10.70;3.45;;;19.10;99.90;;;;;;5067093;28;20434;-72
2023/10/04 12:44:30;;;;;;;8.70;3.20;;;19.20;99.90;;;;;;5067222;28;20411;-72
2023/10/04 12:46:58;;;;;;;13.90;3.58;;;19.20;99.90;;;;;;5067597;28;20404;-72